Time;durP1;ratioP1;P1;durP2;ratioP2;P2;SDS_P1;SDS_P2;PMS_P1;PMS_P2;Temp;Humidity;BMP_temperature;BMP_pressure;BME280_temperature;BME280_humidity;BME280_pressure;Samples;Min_cycle;Max_cycle;Signal;HPM_P1;HPM_P2
2023/10/20 00:00:49;;;;;;;38.00;19.30;;;;;;;6.44;100.00;98456.78;4207904;28;20327;-66
2023/10/20 00:03:17;;;;;;;36.07;19.33;;;;;;;6.47;100.00;98454.59;4210178;28;20239;-70
2023/10/20 00:05:43;;;;;;;34.57;18.87;;;;;;;6.45;100.00;98436.97;4215681;28;20264;-68
2023/10/20 00:08:10;;;;;;;36.67;18.43;;;;;;;6.53;100.00;98431.59;4198271;28;20238;-69
2023/10/20 00:10:37;;;;;;;32.70;17.70;;;;;;;6.54;100.00;98425.16;4218345;28;20231;-68
2023/10/20 00:13:04;;;;;;;35.93;19.13;;;;;;;6.56;100.00;98411.59;4218093;28;20608;-69
2023/10/20 00:15:33;;;;;;;37.40;18.97;;;;;;;6.43;100.00;98406.72;4214903;28;20236;-67
2023/10/20 00:18:46;;;;;;;31.33;17.83;;;;;;;6.50;100.00;98419.28;4218247;28;21417;-68
2023/10/20 00:21:13;;;;;;;35.57;18.93;;;;;;;6.38;100.00;98431.44;4221495;28;20238;-67
2023/10/20 00:23:40;;;;;;;36.73;18.83;;;;;;;6.44;100.00;98441.50;4215530;28;20579;-69
2023/10/20 00:26:06;;;;;;;39.17;19.57;;;;;;;6.42;100.00;98431.91;4211721;28;22247;-67
2023/10/20 00:28:33;;;;;;;38.17;19.10;;;;;;;6.57;100.00;98435.59;4214237;28;21350;-68
2023/10/20 00:31:00;;;;;;;39.27;19.30;;;;;;;6.44;100.00;98422.69;4213650;28;20232;-67
2023/10/20 00:33:26;;;;;;;31.47;17.83;;;;;;;6.57;100.00;98432.06;4216960;28;20310;-67
2023/10/20 00:35:53;;;;;;;36.20;18.47;;;;;;;6.46;100.00;98439.47;4182308;28;20228;-67
2023/10/20 00:38:19;;;;;;;33.53;18.40;;;;;;;6.54;100.00;98430.53;4215891;28;20238;-67
2023/10/20 00:40:50;;;;;;;35.13;18.73;;;;;;;6.50;100.00;98429.22;4217445;28;20266;-67
2023/10/20 00:43:17;;;;;;;36.20;19.13;;;;;;;6.52;100.00;98423.66;4209050;28;20298;-67
2023/10/20 00:45:44;;;;;;;39.20;18.77;;;;;;;6.53;100.00;98420.84;4220501;28;20571;-70
2023/10/20 00:48:12;;;;;;;38.57;18.90;;;;;;;6.53;100.00;98420.84;4219379;28;21595;-68
2023/10/20 00:50:39;;;;;;;36.80;18.37;;;;;;;6.65;100.00;98413.22;4214044;28;20311;-68
2023/10/20 00:53:09;;;;;;;36.50;20.17;;;;;;;6.71;100.00;98406.31;4217516;28;20302;-68
2023/10/20 00:55:36;;;;;;;38.33;19.30;;;;;;;6.57;100.00;98416.78;4220108;28;20236;-67
2023/10/20 00:58:03;;;;;;;35.10;18.67;;;;;;;6.72;100.00;98421.44;4211309;28;20239;-67
2023/10/20 01:00:30;;;;;;;34.30;18.27;;;;;;;6.76;100.00;98418.25;4196217;28;20610;-67
2023/10/20 01:02:57;;;;;;;37.73;19.60;;;;;;;6.62;100.00;98408.19;4212165;28;20596;-67
2023/10/20 01:05:24;;;;;;;36.53;19.17;;;;;;;6.72;100.00;98408.81;4226989;28;20330;-67
2023/10/20 01:07:50;;;;;;;39.97;19.73;;;;;;;6.64;100.00;98404.31;4216010;28;22491;-69
2023/10/20 01:10:18;;;;;;;33.73;18.07;;;;;;;6.69;100.00;98397.56;4215537;28;20339;-68
2023/10/20 01:12:44;;;;;;;36.40;19.70;;;;;;;6.69;100.00;98393.06;4214922;28;20254;-67
2023/10/20 01:15:15;;;;;;;37.80;19.33;;;;;;;6.72;100.00;98384.63;4216605;28;20268;-68
2023/10/20 01:17:42;;;;;;;36.20;19.43;;;;;;;6.64;100.00;98377.44;4219539;28;20232;-67
2023/10/20 01:20:10;;;;;;;37.43;18.67;;;;;;;6.63;100.00;98380.31;4220577;28;21152;-67
2023/10/20 01:22:36;;;;;;;36.40;18.73;;;;;;;6.76;100.00;98379.75;4210447;28;20246;-68
2023/10/20 01:25:03;;;;;;;33.60;18.50;;;;;;;6.76;100.00;98366.31;4210277;28;20347;-68
2023/10/20 01:27:30;;;;;;;35.57;18.40;;;;;;;6.65;100.00;98354.06;4206433;28;22979;-68
2023/10/20 01:29:56;;;;;;;33.20;17.90;;;;;;;6.69;100.00;98352.72;4203365;28;21776;-68
2023/10/20 01:32:23;;;;;;;36.70;18.17;;;;;;;6.73;100.00;98355.91;4209082;28;20289;-69
2023/10/20 01:34:50;;;;;;;35.93;18.30;;;;;;;6.68;100.00;98352.91;4222304;28;20244;-67
2023/10/20 01:37:17;;;;;;;37.60;17.90;;;;;;;6.62;100.00;98349.06;4218046;28;22170;-67
2023/10/20 01:39:44;;;;;;;35.60;18.17;;;;;;;6.65;100.00;98343.31;4211570;28;20310;-68
2023/10/20 01:42:11;;;;;;;36.67;18.03;;;;;;;6.62;100.00;98341.81;4204714;28;20620;-69
2023/10/20 01:44:38;;;;;;;36.77;17.17;;;;;;;6.66;100.00;98331.53;4211684;28;20235;-67
2023/10/20 01:47:04;;;;;;;31.30;17.53;;;;;;;6.66;100.00;98337.78;4218812;28;20842;-68
2023/10/20 01:49:31;;;;;;;30.90;16.60;;;;;;;6.61;100.00;98337.44;4211392;28;20927;-68
2023/10/20 01:51:58;;;;;;;31.37;16.63;;;;;;;6.57;100.00;98325.38;4214127;28;20237;-67
2023/10/20 01:54:24;;;;;;;34.47;18.13;;;;;;;6.62;100.00;98347.19;4214734;28;21684;-68
2023/10/20 01:56:51;;;;;;;35.33;17.33;;;;;;;6.57;100.00;98357.63;4220665;28;22215;-68
2023/10/20 01:59:18;;;;;;;34.13;17.83;;;;;;;6.60;100.00;98368.06;4224371;28;22153;-68
2023/10/20 02:01:44;;;;;;;28.53;15.37;;;;;;;6.56;100.00;98369.41;4209124;28;20264;-67
2023/10/20 02:04:11;;;;;;;33.47;17.33;;;;;;;6.54;100.00;98366.03;4219901;28;20399;-67
2023/10/20 02:06:38;;;;;;;31.90;17.00;;;;;;;6.59;100.00;98362.81;4224238;28;20236;-67
2023/10/20 02:09:06;;;;;;;31.67;16.73;;;;;;;6.63;100.00;98348.88;4217440;28;20238;-67
2023/10/20 02:11:32;;;;;;;32.43;17.40;;;;;;;6.63;100.00;98346.19;4205384;28;20754;-67
2023/10/20 02:13:59;;;;;;;32.93;17.10;;;;;;;6.59;100.00;98347.56;4201664;28;20275;-69
2023/10/20 02:16:26;;;;;;;32.83;16.27;;;;;;;6.68;100.00;98339.47;4202123;28;20223;-67
2023/10/20 02:18:52;;;;;;;31.60;16.57;;;;;;;6.64;100.00;98331.72;4223235;28;20321;-67
2023/10/20 02:21:19;;;;;;;33.03;16.37;;;;;;;6.70;100.00;98330.19;4217842;28;20299;-70
2023/10/20 02:23:45;;;;;;;31.63;17.20;;;;;;;6.60;100.00;98326.88;4222851;28;21825;-67
2023/10/20 02:26:12;;;;;;;33.30;17.40;;;;;;;6.76;100.00;98326.00;4221650;28;20294;-67
2023/10/20 02:28:39;;;;;;;31.77;16.70;;;;;;;6.67;100.00;98330.53;4206450;28;21787;-68
2023/10/20 02:31:14;;;;;;;30.87;16.83;;;;;;;6.63;100.00;98327.38;4223739;28;20291;-68
2023/10/20 02:33:41;;;;;;;32.80;16.17;;;;;;;6.66;100.00;98335.09;4211822;28;20224;-68
2023/10/20 02:36:07;;;;;;;32.40;16.47;;;;;;;6.78;100.00;98321.25;4224879;28;20326;-70
2023/10/20 02:38:34;;;;;;;29.73;16.23;;;;;;;6.72;100.00;98325.47;4225107;28;20286;-66
2023/10/20 02:41:03;;;;;;;28.30;15.20;;;;;;;6.75;100.00;98338.56;4221970;28;21571;-67
2023/10/20 02:43:31;;;;;;;33.57;17.10;;;;;;;6.64;100.00;98330.91;4220551;28;20889;-67
2023/10/20 02:45:58;;;;;;;28.43;15.57;;;;;;;6.67;100.00;98327.84;4202171;28;20233;-68
2023/10/20 02:48:24;;;;;;;28.70;15.47;;;;;;;6.69;100.00;98315.09;4216608;28;20312;-68
2023/10/20 02:50:51;;;;;;;30.33;16.60;;;;;;;6.63;100.00;98315.78;4223927;28;20292;-68
2023/10/20 02:53:20;;;;;;;28.67;15.97;;;;;;;6.56;100.00;98312.13;4198779;28;20238;-70
2023/10/20 02:55:47;;;;;;;33.50;17.13;;;;;;;6.59;100.00;98326.03;4211656;28;21175;-68
2023/10/20 02:58:16;;;;;;;31.70;16.83;;;;;;;6.52;100.00;98329.59;4215180;28;20231;-68
2023/10/20 03:00:44;;;;;;;29.20;16.07;;;;;;;6.59;100.00;98323.34;4224586;28;20239;-70
2023/10/20 03:03:13;;;;;;;35.40;16.57;;;;;;;6.60;100.00;98319.66;4216781;28;20256;-69
2023/10/20 03:05:43;;;;;;;31.90;16.97;;;;;;;6.57;100.00;98317.31;4225811;28;23478;-69
2023/10/20 03:08:11;;;;;;;30.50;16.77;;;;;;;6.57;100.00;98317.31;4220201;28;20235;-69
2023/10/20 03:10:41;;;;;;;31.97;16.77;;;;;;;6.64;100.00;98323.66;4215914;28;21443;-67
2023/10/20 03:13:08;;;;;;;31.73;16.73;;;;;;;6.62;100.00;98328.38;4223862;28;20227;-68
2023/10/20 03:15:34;;;;;;;33.77;17.50;;;;;;;6.54;100.00;98330.25;4208088;28;20249;-68
2023/10/20 03:18:01;;;;;;;32.30;17.57;;;;;;;6.57;100.00;98328.06;4230643;28;20225;-70
2023/10/20 03:20:32;;;;;;;32.43;17.03;;;;;;;6.54;100.00;98323.03;4219431;28;20294;-68
2023/10/20 03:23:01;;;;;;;32.87;17.03;;;;;;;6.50;100.00;98325.22;4218043;28;20261;-67
2023/10/20 03:25:31;;;;;;;33.67;17.53;;;;;;;6.53;100.00;98317.81;4227095;28;20232;-69
2023/10/20 03:27:57;;;;;;;36.37;17.03;;;;;;;6.58;100.00;98315.44;4213283;28;21186;-67
2023/10/20 03:30:24;;;;;;;32.83;17.47;;;;;;;6.52;100.00;98319.69;4225613;28;22125;-67
2023/10/20 03:32:51;;;;;;;31.80;16.97;;;;;;;6.53;100.00;98318.69;4222328;28;20243;-69
2023/10/20 03:35:17;;;;;;;28.43;16.83;;;;;;;6.50;100.00;98317.16;4211521;28;20380;-70
2023/10/20 03:37:44;;;;;;;28.57;16.70;;;;;;;6.57;100.00;98319.16;4220343;28;20337;-69
2023/10/20 03:40:16;;;;;;;34.67;16.37;;;;;;;6.49;100.00;98310.13;4219842;28;20299;-68
2023/10/20 03:42:43;;;;;;;32.40;16.43;;;;;;;6.50;100.00;98298.34;4206206;28;22065;-66
2023/10/20 03:45:10;;;;;;;31.37;15.67;;;;;;;6.49;100.00;98303.91;4222177;28;23744;-68
2023/10/20 03:47:40;;;;;;;29.80;15.83;;;;;;;6.50;100.00;98313.63;4208302;28;20293;-67
2023/10/20 03:50:14;;;;;;;28.50;14.40;;;;;;;6.55;100.00;98316.63;4219284;28;20293;-67
2023/10/20 03:52:41;;;;;;;29.10;14.60;;;;;;;6.45;100.00;98311.47;4220245;28;20237;-68
2023/10/20 03:55:13;;;;;;;26.97;14.70;;;;;;;6.47;100.00;98306.78;4212835;28;20932;-70
2023/10/20 03:57:41;;;;;;;31.20;15.60;;;;;;;6.33;100.00;98300.25;4223169;28;22040;-69
2023/10/20 04:00:28;;;;;;;27.17;14.77;;;;;;;6.34;100.00;98298.44;4206589;28;20497;-69
2023/10/20 04:02:56;;;;;;;23.43;13.97;;;;;;;6.38;100.00;98305.13;4216277;28;20241;-67
2023/10/20 04:05:24;;;;;;;26.50;14.20;;;;;;;6.38;100.00;98293.53;4221656;28;20302;-67
2023/10/20 04:07:50;;;;;;;24.47;13.27;;;;;;;6.34;100.00;98295.75;4205828;28;20232;-69
2023/10/20 04:10:20;;;;;;;27.50;14.77;;;;;;;6.31;100.00;98291.53;4216079;28;20279;-69
2023/10/20 04:12:48;;;;;;;23.60;13.07;;;;;;;6.26;100.00;98291.22;4223460;28;20233;-68
2023/10/20 04:15:16;;;;;;;24.37;13.40;;;;;;;6.28;100.00;98293.72;4209898;28;20918;-68
2023/10/20 04:17:54;;;;;;;27.27;13.90;;;;;;;6.26;100.00;98301.97;4228439;28;20630;-68
2023/10/20 04:20:23;;;;;;;24.80;13.57;;;;;;;6.38;100.00;98296.22;4220006;28;22386;-69
2023/10/20 04:22:50;;;;;;;23.30;13.27;;;;;;;6.34;100.00;98293.06;4223791;28;20246;-67
2023/10/20 04:25:17;;;;;;;25.83;13.47;;;;;;;6.29;100.00;98298.94;4214864;28;20232;-69
2023/10/20 04:54:58;;;;;;;16.63;9.97;;;;;;;6.10;100.00;98316.28;4227512;28;20231;-67
2023/10/20 05:05:22;;;;;;;15.93;9.83;;;;;;;5.79;100.00;98334.91;4205501;28;20252;-67
2023/10/20 05:07:51;;;;;;;15.43;9.53;;;;;;;5.79;100.00;98333.06;4218444;28;20325;-67
2023/10/20 05:10:19;;;;;;;14.43;9.53;;;;;;;5.71;100.00;98349.19;4226027;28;20236;-69
2023/10/20 05:12:46;;;;;;;15.67;9.60;;;;;;;5.72;100.00;98348.19;4221197;28;20239;-67
2023/10/20 05:15:14;;;;;;;15.57;9.87;;;;;;;5.74;100.00;98326.53;4219746;28;20659;-66
2023/10/20 05:17:41;;;;;;;15.10;9.93;;;;;;;5.67;100.00;98329.03;4208779;28;20235;-68
2023/10/20 05:20:10;;;;;;;16.00;9.77;;;;;;;5.71;100.00;98317.78;4217701;28;20234;-67
2023/10/20 05:22:37;;;;;;;15.30;8.97;;;;;;;5.58;100.00;98320.16;4218510;28;20267;-67
2023/10/20 05:25:04;;;;;;;16.30;9.87;;;;;;;5.59;100.00;98308.41;4215489;28;21664;-67
2023/10/20 05:27:30;;;;;;;15.57;10.27;;;;;;;5.51;100.00;98322.66;4232924;28;20708;-68
2023/10/20 05:29:57;;;;;;;14.53;9.63;;;;;;;5.52;100.00;98326.19;4220352;28;20231;-70
2023/10/20 05:32:24;;;;;;;16.23;9.37;;;;;;;5.49;100.00;98332.75;4215967;28;20619;-67
2023/10/20 05:34:56;;;;;;;16.57;9.93;;;;;;;5.51;100.00;98324.50;4223116;28;20282;-67
2023/10/20 05:37:23;;;;;;;15.07;9.83;;;;;;;5.44;100.00;98308.22;4223329;28;20740;-67
2023/10/20 05:39:49;;;;;;;18.70;10.57;;;;;;;5.43;100.00;98316.47;4216255;28;21534;-68
2023/10/20 05:42:19;;;;;;;17.80;10.83;;;;;;;5.40;100.00;98323.81;4202770;28;23488;-66
2023/10/20 05:45:03;;;;;;;18.40;10.30;;;;;;;5.38;100.00;98320.50;4216307;28;21624;-66
2023/10/20 05:47:30;;;;;;;18.43;10.10;;;;;;;5.35;100.00;98319.97;4229648;28;20236;-67
2023/10/20 05:49:59;;;;;;;18.17;11.27;;;;;;;5.39;100.00;98324.84;4218254;28;21708;-65
2023/10/20 05:52:25;;;;;;;21.27;12.43;;;;;;;5.42;100.00;98325.50;4210041;28;20274;-65
2023/10/20 05:54:54;;;;;;;21.80;11.43;;;;;;;5.39;100.00;98337.41;4209265;28;20647;-66
2023/10/20 05:57:22;;;;;;;23.10;11.57;;;;;;;5.33;100.00;98348.81;4222601;28;21224;-66
2023/10/20 05:59:49;;;;;;;19.40;10.53;;;;;;;5.48;100.00;98340.94;4232852;28;20979;-67
2023/10/20 06:02:16;;;;;;;22.80;11.00;;;;;;;5.44;100.00;98336.91;4236590;28;21024;-67
2023/10/20 06:04:43;;;;;;;23.27;11.53;;;;;;;5.35;100.00;98352.19;4228902;28;20233;-66
2023/10/20 06:07:10;;;;;;;19.77;11.07;;;;;;;5.35;100.00;98352.19;4232425;28;21780;-67
2023/10/20 06:09:37;;;;;;;19.57;10.33;;;;;;;5.36;100.00;98364.59;4222100;28;20342;-68
2023/10/20 06:12:07;;;;;;;17.43;10.13;;;;;;;5.32;100.00;98361.41;4232498;28;20306;-67
2023/10/20 06:14:36;;;;;;;17.73;10.03;;;;;;;5.37;100.00;98375.16;4245957;28;22170;-66
2023/10/20 06:17:03;;;;;;;19.50;10.67;;;;;;;5.35;100.00;98370.97;4233946;28;20245;-67
2023/10/20 06:19:31;;;;;;;17.07;9.10;;;;;;;5.39;100.00;98367.78;4270933;28;20231;-68
2023/10/20 06:22:00;;;;;;;18.93;8.90;;;;;;;5.35;100.00;98385.19;4231570;28;20232;-67
2023/10/20 06:24:27;;;;;;;17.37;8.30;;;;;;;5.24;100.00;98383.66;4231012;28;21245;-68
2023/10/20 06:27:02;;;;;;;15.40;7.87;;;;;;;5.29;100.00;98375.13;4214025;28;20231;-67
2023/10/20 06:32:21;;;;;;;11.90;6.77;;;;;;;5.30;100.00;98362.53;4240190;28;21027;-68
2023/10/20 06:34:47;;;;;;;18.07;7.60;;;;;;;5.27;100.00;98353.00;4257872;28;20376;-66
2023/10/20 06:37:36;;;;;;;11.87;7.13;;;;;;;5.34;100.00;98351.31;4244193;28;21702;-68
2023/10/20 06:40:06;;;;;;;16.83;7.97;;;;;;;5.34;100.00;98355.88;4228986;28;21435;-69
2023/10/20 06:42:33;;;;;;;16.47;7.27;;;;;;;5.38;100.00;98358.06;4239455;28;21240;-69
2023/10/20 06:45:04;;;;;;;11.60;6.80;;;;;;;5.34;100.00;98347.81;4254481;28;20397;-68
2023/10/20 06:47:31;;;;;;;14.77;7.63;;;;;;;5.37;100.00;98351.00;4230591;28;20232;-68
2023/10/20 06:49:58;;;;;;;13.50;6.83;;;;;;;5.40;100.00;98345.28;4218557;28;20719;-67
2023/10/20 06:52:25;;;;;;;14.93;7.43;;;;;;;5.37;100.00;98351.00;4229107;28;20303;-67
2023/10/20 06:54:56;;;;;;;16.77;7.47;;;;;;;5.40;100.00;98334.56;4214880;28;20233;-67
2023/10/20 06:57:42;;;;;;;14.20;6.87;;;;;;;5.31;100.00;98343.63;4204724;28;21246;-67
2023/10/20 07:00:16;;;;;;;12.93;7.00;;;;;;;5.39;100.00;98346.31;4227909;28;20346;-69
2023/10/20 07:02:43;;;;;;;13.23;7.43;;;;;;;5.43;100.00;98337.91;4210188;28;20236;-67
2023/10/20 07:05:10;;;;;;;16.27;6.87;;;;;;;5.38;100.00;98325.00;4232306;28;20356;-67
2023/10/20 07:07:37;;;;;;;15.83;6.80;;;;;;;5.36;100.00;98327.84;4217735;28;20291;-67
2023/10/20 07:10:04;;;;;;;19.10;7.17;;;;;;;5.42;100.00;98330.88;4216651;28;23817;-68
2023/10/20 07:12:30;;;;;;;16.53;7.07;;;;;;;5.40;100.00;98325.69;4237990;28;21846;-69
2023/10/20 07:14:57;;;;;;;15.80;7.20;;;;;;;5.42;100.00;98336.25;4215555;28;20942;-68
2023/10/20 07:17:23;;;;;;;19.17;7.40;;;;;;;5.35;100.00;98336.91;4219385;28;21185;-68
2023/10/20 07:19:50;;;;;;;18.90;7.37;;;;;;;5.40;100.00;98349.81;4217693;28;20385;-69
2023/10/20 07:22:17;;;;;;;15.20;7.33;;;;;;;5.43;100.00;98362.06;4214058;28;20235;-68
2023/10/20 07:24:43;;;;;;;17.77;7.20;;;;;;;5.46;100.00;98354.53;4225076;28;20347;-68
2023/10/20 07:27:10;;;;;;;20.13;7.47;;;;;;;5.38;100.00;98352.69;4217413;28;21851;-67
2023/10/20 07:29:37;;;;;;;17.00;6.77;;;;;;;5.44;100.00;98356.53;4203161;28;20502;-70
2023/10/20 07:32:12;;;;;;;16.20;6.40;;;;;;;5.46;100.00;98349.16;4216506;28;20283;-67
2023/10/20 07:34:38;;;;;;;23.83;7.30;;;;;;;5.52;100.00;98348.50;4220270;28;20235;-70
2023/10/20 07:37:06;;;;;;;20.63;7.10;;;;;;;5.59;100.00;98358.59;4223891;28;20236;-68
2023/10/20 07:39:34;;;;;;;15.37;7.20;;;;;;;5.49;100.00;98358.72;4221724;28;20832;-69
2023/10/20 07:42:01;;;;;;;19.57;8.70;;;;;;;5.52;100.00;98358.41;4225017;28;22281;-69
2023/10/20 07:44:27;;;;;;;26.00;8.77;;;;;;;5.49;100.00;98356.03;4234120;28;20228;-66
2023/10/20 07:46:54;;;;;;;17.43;7.50;;;;;;;5.58;100.00;98344.31;4214354;28;20227;-68
2023/10/20 07:49:21;;;;;;;16.30;7.50;;;;;;;5.53;100.00;98350.16;4226545;28;20238;-68
2023/10/20 07:51:48;;;;;;;19.17;8.20;;;;;;;5.51;100.00;98345.97;4216748;28;22068;-68
2023/10/20 07:54:14;;;;;;;16.77;7.97;;;;;;;5.53;100.00;98344.81;4221889;28;20231;-68
2023/10/20 07:56:41;;;;;;;16.50;7.73;;;;;;;5.59;100.00;98342.47;4214161;28;20288;-70
2023/10/20 07:59:08;;;;;;;15.00;7.53;;;;;;;5.72;100.00;98343.63;4219591;28;20283;-66
2023/10/20 08:01:34;;;;;;;15.67;7.57;;;;;;;5.67;100.00;98332.56;4217204;28;20231;-68
2023/10/20 08:04:02;;;;;;;19.33;8.50;;;;;;;5.63;100.00;98330.38;4222419;28;26125;-68
2023/10/20 08:06:29;;;;;;;15.73;7.43;;;;;;;5.69;100.00;98335.06;4219925;28;20604;-70
2023/10/20 08:08:57;;;;;;;17.20;8.10;;;;;;;5.60;100.00;98328.03;4216207;28;21126;-66
2023/10/20 08:11:24;;;;;;;19.67;7.37;;;;;;;5.54;100.00;98329.56;4213820;28;22183;-69
2023/10/20 08:13:50;;;;;;;19.93;7.77;;;;;;;5.66;100.00;98338.13;4225398;28;20249;-68
2023/10/20 08:16:20;;;;;;;22.77;7.93;;;;;;;5.54;100.00;98333.06;4213819;28;20637;-69
2023/10/20 08:18:48;;;;;;;16.00;8.10;;;;;;;5.59;100.00;98337.13;4219664;28;21176;-69
2023/10/20 08:21:16;;;;;;;26.23;7.93;;;;;;;5.61;100.00;98330.56;4221219;28;20340;-69
2023/10/20 08:23:43;;;;;;;17.97;7.73;;;;;;;5.52;100.00;98332.38;4233454;28;20241;-68
2023/10/20 08:26:19;;;;;;;23.17;8.80;;;;;;;5.51;100.00;98348.66;4212907;28;20235;-68
2023/10/20 08:28:48;;;;;;;22.50;8.10;;;;;;;5.67;100.00;98354.03;4223088;28;21124;-68
2023/10/20 08:31:19;;;;;;;23.40;8.53;;;;;;;5.69;100.00;98352.03;4215139;28;20235;-69
2023/10/20 08:33:47;;;;;;;21.57;7.80;;;;;;;5.70;100.00;98334.06;4212054;28;20583;-66
2023/10/20 08:36:20;;;;;;;20.73;8.37;;;;;;;5.62;100.00;98336.75;4230147;28;20243;-71
2023/10/20 08:38:49;;;;;;;22.30;8.70;;;;;;;5.74;100.00;98342.63;4219570;28;20418;-67
2023/10/20 08:41:21;;;;;;;19.20;8.57;;;;;;;5.65;100.00;98337.25;4215715;28;25500;-70
2023/10/20 08:43:49;;;;;;;18.90;8.20;;;;;;;5.70;100.00;98340.28;4222390;28;20335;-69
2023/10/20 08:46:17;;;;;;;18.47;8.10;;;;;;;5.75;100.00;98325.53;4221074;28;20320;-71
2023/10/20 08:48:46;;;;;;;27.40;9.53;;;;;;;5.69;100.00;98329.72;4227091;28;20403;-69
2023/10/20 08:51:14;;;;;;;17.90;8.77;;;;;;;5.72;100.00;98334.75;4221015;28;20271;-68
2023/10/20 08:53:44;;;;;;;24.43;9.30;;;;;;;5.70;100.00;98326.84;4225561;28;21613;-68
2023/10/20 08:56:12;;;;;;;19.33;9.07;;;;;;;5.74;100.00;98327.34;4218915;28;21348;-68
2023/10/20 08:58:38;;;;;;;21.33;8.77;;;;;;;5.78;100.00;98322.50;4194033;28;20282;-69
2023/10/20 09:01:05;;;;;;;22.63;9.50;;;;;;;5.80;100.00;98317.78;4216316;28;20705;-68
2023/10/20 09:03:40;;;;;;;21.83;9.20;;;;;;;5.85;100.00;98327.03;4234122;28;22235;-70
2023/10/20 09:06:11;;;;;;;19.50;8.93;;;;;;;5.79;100.00;98318.78;4215994;28;21506;-68
2023/10/20 09:08:38;;;;;;;22.53;9.37;;;;;;;5.79;100.00;98308.06;4226418;28;20254;-68
2023/10/20 09:11:08;;;;;;;21.63;9.07;;;;;;;5.76;100.00;98308.41;4225652;28;20234;-68
2023/10/20 09:13:37;;;;;;;23.80;9.73;;;;;;;5.82;100.00;98303.19;4221026;28;25800;-68
2023/10/20 09:16:09;;;;;;;24.43;9.27;;;;;;;5.81;100.00;98301.53;4202888;28;22804;-69
2023/10/20 09:18:52;;;;;;;23.27;9.70;;;;;;;5.82;100.00;98303.19;4216178;28;21062;-69
2023/10/20 09:21:24;;;;;;;24.17;9.53;;;;;;;5.76;100.00;98306.56;4225200;28;20304;-69
2023/10/20 09:23:59;;;;;;;22.57;10.10;;;;;;;5.81;100.00;98312.28;4214152;28;20234;-69
2023/10/20 09:26:31;;;;;;;22.70;8.97;;;;;;;5.89;100.00;98316.78;4230208;28;20230;-69
2023/10/20 09:28:58;;;;;;;21.80;9.37;;;;;;;5.94;100.00;98311.72;4222401;28;20334;-69
2023/10/20 09:31:27;;;;;;;28.17;9.80;;;;;;;5.76;100.00;98308.41;4221327;28;20228;-70
2023/10/20 09:33:55;;;;;;;19.57;8.73;;;;;;;5.83;100.00;98310.22;4229523;28;22645;-68
2023/10/20 09:36:23;;;;;;;20.43;9.63;;;;;;;5.76;100.00;98319.16;4232020;28;20602;-69
2023/10/20 09:38:52;;;;;;;24.40;9.70;;;;;;;5.78;100.00;98314.47;4224144;28;22702;-70
2023/10/20 09:41:24;;;;;;;26.13;9.93;;;;;;;5.83;100.00;98309.41;4239874;28;20445;-68
2023/10/20 09:44:06;;;;;;;24.93;9.53;;;;;;;5.92;100.00;98311.09;4218787;28;20978;-69
2023/10/20 09:46:55;;;;;;;20.30;9.13;;;;;;;5.89;100.00;98307.91;4208611;28;25137;-70
2023/10/20 09:49:25;;;;;;;22.63;9.87;;;;;;;5.89;100.00;98305.22;4209465;28;20231;-69
2023/10/20 09:51:55;;;;;;;23.67;9.43;;;;;;;5.91;100.00;98306.72;4222707;28;21103;-70
2023/10/20 09:54:33;;;;;;;27.87;10.80;;;;;;;5.83;100.00;98301.34;4212870;28;21364;-67
2023/10/20 09:57:01;;;;;;;23.03;9.87;;;;;;;5.97;100.00;98294.44;4221770;28;26010;-68
2023/10/20 09:59:28;;;;;;;23.10;10.30;;;;;;;6.01;100.00;98293.13;4228890;28;20268;-69
2023/10/20 10:01:58;;;;;;;23.07;10.60;;;;;;;5.95;100.00;98281.19;4211553;28;20246;-67
2023/10/20 10:04:29;;;;;;;22.00;10.30;;;;;;;5.84;100.00;98273.50;4215647;28;20365;-68
2023/10/20 10:07:03;;;;;;;27.23;11.37;;;;;;;5.87;100.00;98267.78;4211893;28;21045;-68
2023/10/20 10:09:49;;;;;;;25.03;10.80;;;;;;;5.81;100.00;98271.16;4205044;28;20228;-69
2023/10/20 10:12:20;;;;;;;24.97;11.43;;;;;;;5.75;100.00;98253.03;4204833;28;20243;-68
2023/10/20 10:15:13;;;;;;;20.10;10.27;;;;;;;5.83;100.00;98244.97;4225446;28;20608;-67
2023/10/20 10:17:48;;;;;;;22.43;11.30;;;;;;;5.76;100.00;98250.16;4238931;28;20236;-69
2023/10/20 10:20:46;;;;;;;24.83;11.57;;;;;;;5.82;100.00;98259.41;4213652;28;20224;-69
2023/10/20 10:23:17;;;;;;;29.73;12.83;;;;;;;5.70;100.00;98257.06;4220004;28;21016;-70
2023/10/20 10:25:46;;;;;;;24.37;11.43;;;;;;;5.59;100.00;98253.91;4225337;28;21695;-68
2023/10/20 10:28:17;;;;;;;26.80;11.73;;;;;;;5.70;100.00;98248.19;4218373;28;21086;-66
2023/10/20 10:30:47;;;;;;;27.33;12.33;;;;;;;5.70;100.00;98232.06;4220779;28;20236;-68
2023/10/20 10:33:21;;;;;;;28.50;12.17;;;;;;;5.69;100.00;98233.94;4224529;28;21740;-68
2023/10/20 10:35:48;;;;;;;24.43;11.53;;;;;;;5.66;100.00;98244.16;4219015;28;21080;-69
2023/10/20 10:38:46;;;;;;;26.90;12.10;;;;;;;5.65;100.00;98235.25;4230549;28;20245;-70
2023/10/20 10:41:13;;;;;;;22.53;10.63;;;;;;;5.73;100.00;98237.09;4217758;28;20238;-69
2023/10/20 10:43:39;;;;;;;26.17;11.47;;;;;;;5.75;100.00;98242.28;4221421;28;20278;-69
2023/10/20 10:46:06;;;;;;;23.43;11.60;;;;;;;5.82;100.00;98238.75;4229305;28;22172;-67
2023/10/20 10:48:35;;;;;;;27.57;11.40;;;;;;;5.73;100.00;98231.75;4228877;28;20234;-69
2023/10/20 10:51:05;;;;;;;27.93;11.07;;;;;;;5.66;100.00;98225.38;4214586;28;21067;-67
2023/10/20 10:53:32;;;;;;;25.40;11.13;;;;;;;5.71;100.00;98229.19;4209779;28;20231;-70
2023/10/20 10:55:59;;;;;;;24.67;11.33;;;;;;;5.71;100.00;98234.56;4223735;28;20303;-68
2023/10/20 10:58:25;;;;;;;19.47;9.87;;;;;;;5.71;100.00;98223.84;4213201;28;20318;-68
2023/10/20 11:00:54;;;;;;;25.60;11.13;;;;;;;5.65;100.00;98223.69;4222406;28;20302;-68
2023/10/20 11:03:21;;;;;;;25.37;11.23;;;;;;;5.66;100.00;98236.94;4223405;28;20525;-70
2023/10/20 11:05:52;;;;;;;27.73;11.40;;;;;;;5.65;100.00;98240.63;4225292;28;20275;-69
2023/10/20 11:08:19;;;;;;;28.27;11.97;;;;;;;5.65;100.00;98240.63;4210813;28;20242;-70
2023/10/20 11:10:46;;;;;;;24.47;10.57;;;;;;;5.65;100.00;98239.81;4232415;28;20241;-68
2023/10/20 11:13:15;;;;;;;30.73;10.93;;;;;;;5.61;100.00;98236.63;4222968;28;21618;-68
2023/10/20 11:15:43;;;;;;;23.37;10.73;;;;;;;5.66;100.00;98255.72;4213027;28;21633;-67
2023/10/20 11:18:12;;;;;;;26.20;10.60;;;;;;;5.60;100.00;98247.50;4234246;28;20278;-68
2023/10/20 11:20:41;;;;;;;27.50;10.57;;;;;;;5.72;100.00;98249.69;4227648;28;20392;-68
2023/10/20 11:23:12;;;;;;;22.63;10.60;;;;;;;5.59;100.00;98241.31;4212228;28;20237;-69
2023/10/20 11:25:40;;;;;;;20.23;10.23;;;;;;;5.61;100.00;98242.00;4239368;28;21471;-67
2023/10/20 11:28:07;;;;;;;36.30;11.70;;;;;;;5.52;100.00;98251.06;4224709;28;20308;-69
2023/10/20 11:30:41;;;;;;;32.00;11.57;;;;;;;5.64;100.00;98255.06;4221673;28;20284;-67
2023/10/20 11:33:12;;;;;;;27.37;11.90;;;;;;;5.55;100.00;98256.09;4239913;28;20235;-67
2023/10/20 11:35:42;;;;;;;26.53;11.00;;;;;;;5.56;100.00;98271.16;4223676;28;20311;-69
2023/10/20 11:38:09;;;;;;;24.17;10.57;;;;;;;5.60;100.00;98267.16;4221526;28;20567;-67
2023/10/20 11:40:35;;;;;;;26.97;11.00;;;;;;;5.53;100.00;98266.97;4230871;28;20362;-69
2023/10/20 11:43:03;;;;;;;29.27;12.03;;;;;;;5.69;100.00;98271.50;4220678;28;20295;-70
2023/10/20 11:45:29;;;;;;;28.70;11.83;;;;;;;5.75;100.00;98282.56;4229750;28;20274;-67
2023/10/20 11:47:56;;;;;;;24.63;9.90;;;;;;;5.57;100.00;98278.22;4225225;28;20232;-66
2023/10/20 11:50:23;;;;;;;27.50;11.17;;;;;;;5.54;100.00;98281.25;4237754;28;20235;-67
2023/10/20 11:52:50;;;;;;;31.20;10.97;;;;;;;5.67;100.00;98283.41;4221942;28;20290;-67
2023/10/20 11:55:18;;;;;;;23.70;10.80;;;;;;;5.63;100.00;98274.03;4202350;28;21658;-68
2023/10/20 11:57:44;;;;;;;25.87;12.10;;;;;;;5.53;100.00;98280.41;4232623;28;20632;-67
2023/10/20 12:00:13;;;;;;;30.87;13.13;;;;;;;5.54;100.00;98283.94;4234290;28;21649;-69
2023/10/20 12:02:40;;;;;;;28.03;11.70;;;;;;;5.52;100.00;98285.94;4237697;28;20240;-70
2023/10/20 12:05:09;;;;;;;31.87;11.43;;;;;;;5.50;100.00;98286.13;4228076;28;20243;-68